sensor_id;sensor_type;location;lat;lon;timestamp;P1;durP1;ratioP1;P2;durP2;ratioP2
22164;SDS011;11248;52.512;13.520;2022-08-01T00:01:04;2.85;;;2.60;;
22164;SDS011;11248;52.512;13.520;2022-08-01T00:03:29;3.80;;;3.03;;
22164;SDS011;11248;52.512;13.520;2022-08-01T00:05:55;4.07;;;2.90;;
22164;SDS011;11248;52.512;13.520;2022-08-01T00:08:21;3.42;;;2.75;;
22164;SDS011;11248;52.512;13.520;2022-08-01T00:10:47;3.58;;;2.72;;
22164;SDS011;11248;52.512;13.520;2022-08-01T00:13:13;5.25;;;3.15;;
22164;SDS011;11248;52.512;13.520;2022-08-01T00:15:39;3.90;;;3.00;;
22164;SDS011;11248;52.512;13.520;2022-08-01T00:18:05;4.72;;;2.70;;
22164;SDS011;11248;52.512;13.520;2022-08-01T00:20:31;4.15;;;3.08;;
22164;SDS011;11248;52.512;13.520;2022-08-01T00:22:57;6.30;;;3.45;;
22164;SDS011;11248;52.512;13.520;2022-08-01T00:25:23;4.72;;;3.00;;
22164;SDS011;11248;52.512;13.520;2022-08-01T00:27:49;3.40;;;2.85;;
22164;SDS011;11248;52.512;13.520;2022-08-01T00:30:14;3.55;;;2.90;;
22164;SDS011;11248;52.512;13.520;2022-08-01T00:32:41;3.40;;;2.92;;
22164;SDS011;11248;52.512;13.520;2022-08-01T00:35:07;4.35;;;3.30;;
22164;SDS011;11248;52.512;13.520;2022-08-01T00:37:33;3.35;;;3.05;;
22164;SDS011;11248;52.512;13.520;2022-08-01T00:39:59;3.42;;;3.13;;
22164;SDS011;11248;52.512;13.520;2022-08-01T00:42:25;4.32;;;3.00;;
22164;SDS011;11248;52.512;13.520;2022-08-01T00:44:51;4.03;;;3.08;;
22164;SDS011;11248;52.512;13.520;2022-08-01T00:47:17;4.53;;;3.28;;
22164;SDS011;11248;52.512;13.520;2022-08-01T00:49:43;3.22;;;2.50;;
22164;SDS011;11248;52.512;13.520;2022-08-01T00:52:08;4.35;;;2.95;;
22164;SDS011;11248;52.512;13.520;2022-08-01T00:54:35;3.63;;;3.00;;
22164;SDS011;11248;52.512;13.520;2022-08-01T00:57:01;3.08;;;2.60;;
22164;SDS011;11248;52.512;13.520;2022-08-01T00:59:27;8.15;;;4.10;;
22164;SDS011;11248;52.512;13.520;2022-08-01T01:01:53;3.58;;;2.88;;
22164;SDS011;11248;52.512;13.520;2022-08-01T01:04:19;3.90;;;2.97;;
22164;SDS011;11248;52.512;13.520;2022-08-01T01:06:58;3.20;;;2.90;;
22164;SDS011;11248;52.512;13.520;2022-08-01T01:09:33;4.47;;;3.20;;
22164;SDS011;11248;52.512;13.520;2022-08-01T01:14:51;3.40;;;3.03;;
22164;SDS011;11248;52.512;13.520;2022-08-01T01:17:19;2.53;;;2.33;;
22164;SDS011;11248;52.512;13.520;2022-08-01T01:19:50;2.75;;;2.55;;
22164;SDS011;11248;52.512;13.520;2022-08-01T01:22:17;2.90;;;2.60;;
22164;SDS011;11248;52.512;13.520;2022-08-01T01:24:50;3.95;;;2.65;;
22164;SDS011;11248;52.512;13.520;2022-08-01T01:27:32;2.53;;;2.33;;
22164;SDS011;11248;52.512;13.520;2022-08-01T01:30:02;3.05;;;2.55;;
22164;SDS011;11248;52.512;13.520;2022-08-01T01:32:30;4.00;;;2.70;;
22164;SDS011;11248;52.512;13.520;2022-08-01T01:34:58;3.47;;;2.55;;
22164;SDS011;11248;52.512;13.520;2022-08-01T01:37:25;4.72;;;2.60;;
22164;SDS011;11248;52.512;13.520;2022-08-01T01:39:52;3.05;;;2.65;;
22164;SDS011;11248;52.512;13.520;2022-08-01T01:42:19;3.63;;;2.90;;
22164;SDS011;11248;52.512;13.520;2022-08-01T01:44:46;3.00;;;2.30;;
22164;SDS011;11248;52.512;13.520;2022-08-01T01:47:12;3.35;;;2.22;;
22164;SDS011;11248;52.512;13.520;2022-08-01T01:49:39;2.60;;;2.33;;
22164;SDS011;11248;52.512;13.520;2022-08-01T01:52:06;4.85;;;2.97;;
22164;SDS011;11248;52.512;13.520;2022-08-01T01:54:36;3.03;;;2.60;;
22164;SDS011;11248;52.512;13.520;2022-08-01T01:57:03;3.78;;;3.17;;
22164;SDS011;11248;52.512;13.520;2022-08-01T01:59:30;4.25;;;2.83;;
22164;SDS011;11248;52.512;13.520;2022-08-01T02:01:58;2.67;;;2.47;;
22164;SDS011;11248;52.512;13.520;2022-08-01T02:04:25;3.10;;;2.80;;
22164;SDS011;11248;52.512;13.520;2022-08-01T02:06:52;3.45;;;2.88;;
22164;SDS011;11248;52.512;13.520;2022-08-01T02:09:19;2.65;;;2.45;;
22164;SDS011;11248;52.512;13.520;2022-08-01T02:11:46;5.13;;;3.17;;
22164;SDS011;11248;52.512;13.520;2022-08-01T02:14:13;2.65;;;2.45;;
22164;SDS011;11248;52.512;13.520;2022-08-01T02:16:40;3.45;;;2.45;;
22164;SDS011;11248;52.512;13.520;2022-08-01T02:19:07;3.33;;;2.38;;
22164;SDS011;11248;52.512;13.520;2022-08-01T02:21:35;3.80;;;2.92;;
22164;SDS011;11248;52.512;13.520;2022-08-01T02:24:03;3.65;;;3.05;;
22164;SDS011;11248;52.512;13.520;2022-08-01T02:26:33;4.28;;;2.78;;
22164;SDS011;11248;52.512;13.520;2022-08-01T02:29:04;3.45;;;2.55;;
22164;SDS011;11248;52.512;13.520;2022-08-01T02:31:31;3.08;;;2.75;;
22164;SDS011;11248;52.512;13.520;2022-08-01T02:34:05;6.03;;;2.70;;
22164;SDS011;11248;52.512;13.520;2022-08-01T02:36:33;3.17;;;2.88;;
22164;SDS011;11248;52.512;13.520;2022-08-01T02:39:06;2.83;;;2.53;;
22164;SDS011;11248;52.512;13.520;2022-08-01T02:41:33;3.72;;;2.83;;
22164;SDS011;11248;52.512;13.520;2022-08-01T02:44:02;2.88;;;2.65;;
22164;SDS011;11248;52.512;13.520;2022-08-01T02:46:34;3.28;;;2.75;;
22164;SDS011;11248;52.512;13.520;2022-08-01T02:49:03;5.35;;;2.63;;
22164;SDS011;11248;52.512;13.520;2022-08-01T02:51:29;2.70;;;2.42;;
22164;SDS011;11248;52.512;13.520;2022-08-01T02:53:56;2.65;;;2.42;;
22164;SDS011;11248;52.512;13.520;2022-08-01T02:56:23;4.32;;;3.15;;
22164;SDS011;11248;52.512;13.520;2022-08-01T02:58:59;3.03;;;2.63;;
22164;SDS011;11248;52.512;13.520;2022-08-01T03:01:25;3.10;;;2.80;;
22164;SDS011;11248;52.512;13.520;2022-08-01T03:03:51;3.25;;;2.42;;
22164;SDS011;11248;52.512;13.520;2022-08-01T03:06:17;3.53;;;2.70;;
22164;SDS011;11248;52.512;13.520;2022-08-01T03:08:43;3.17;;;2.75;;
22164;SDS011;11248;52.512;13.520;2022-08-01T03:11:10;2.80;;;2.60;;
22164;SDS011;11248;52.512;13.520;2022-08-01T03:13:38;3.05;;;2.78;;
22164;SDS011;11248;52.512;13.520;2022-08-01T03:16:05;2.75;;;2.55;;
22164;SDS011;11248;52.512;13.520;2022-08-01T03:18:32;4.10;;;3.10;;
22164;SDS011;11248;52.512;13.520;2022-08-01T03:20:59;2.88;;;2.60;;
22164;SDS011;11248;52.512;13.520;2022-08-01T03:23:25;2.97;;;2.60;;
22164;SDS011;11248;52.512;13.520;2022-08-01T03:25:52;2.53;;;2.17;;
22164;SDS011;11248;52.512;13.520;2022-08-01T03:28:18;3.58;;;2.60;;
22164;SDS011;11248;52.512;13.520;2022-08-01T03:30:46;3.53;;;2.75;;
22164;SDS011;11248;52.512;13.520;2022-08-01T03:33:13;3.22;;;2.78;;
22164;SDS011;11248;52.512;13.520;2022-08-01T03:35:39;2.90;;;2.40;;
22164;SDS011;11248;52.512;13.520;2022-08-01T03:38:08;3.72;;;2.83;;
22164;SDS011;11248;52.512;13.520;2022-08-01T03:40:35;2.78;;;2.53;;
22164;SDS011;11248;52.512;13.520;2022-08-01T03:43:04;2.60;;;2.40;;
22164;SDS011;11248;52.512;13.520;2022-08-01T03:45:34;4.40;;;2.80;;
22164;SDS011;11248;52.512;13.520;2022-08-01T03:48:05;3.38;;;3.08;;
22164;SDS011;11248;52.512;13.520;2022-08-01T03:50:34;5.30;;;3.00;;
22164;SDS011;11248;52.512;13.520;2022-08-01T03:53:01;3.55;;;2.75;;
22164;SDS011;11248;52.512;13.520;2022-08-01T03:55:28;3.65;;;2.78;;
22164;SDS011;11248;52.512;13.520;2022-08-01T03:57:56;4.03;;;3.00;;
22164;SDS011;11248;52.512;13.520;2022-08-01T04:00:22;4.13;;;2.63;;
22164;SDS011;11248;52.512;13.520;2022-08-01T04:02:49;4.90;;;3.03;;
22164;SDS011;11248;52.512;13.520;2022-08-01T04:05:15;5.40;;;3.70;;
22164;SDS011;11248;52.512;13.520;2022-08-01T04:07:45;4.18;;;2.88;;
22164;SDS011;11248;52.512;13.520;2022-08-01T04:10:11;2.63;;;2.42;;
22164;SDS011;11248;52.512;13.520;2022-08-01T04:12:37;4.28;;;2.80;;
22164;SDS011;11248;52.512;13.520;2022-08-01T04:15:03;3.20;;;2.58;;
22164;SDS011;11248;52.512;13.520;2022-08-01T04:17:29;4.25;;;2.60;;
22164;SDS011;11248;52.512;13.520;2022-08-01T04:19:55;2.65;;;2.45;;
22164;SDS011;11248;52.512;13.520;2022-08-01T04:22:21;4.63;;;3.80;;
22164;SDS011;11248;52.512;13.520;2022-08-01T04:24:47;3.33;;;2.60;;
22164;SDS011;11248;52.512;13.520;2022-08-01T04:27:17;2.95;;;2.65;;
22164;SDS011;11248;52.512;13.520;2022-08-01T04:29:44;6.68;;;3.60;;
22164;SDS011;11248;52.512;13.520;2022-08-01T04:32:12;5.28;;;3.10;;
22164;SDS011;11248;52.512;13.520;2022-08-01T04:34:39;5.32;;;3.28;;
22164;SDS011;11248;52.512;13.520;2022-08-01T04:37:09;3.97;;;3.15;;
22164;SDS011;11248;52.512;13.520;2022-08-01T04:39:36;5.78;;;3.75;;
22164;SDS011;11248;52.512;13.520;2022-08-01T04:42:02;4.18;;;3.17;;
22164;SDS011;11248;52.512;13.520;2022-08-01T04:44:29;4.45;;;3.03;;
22164;SDS011;11248;52.512;13.520;2022-08-01T04:46:57;3.63;;;3.08;;
22164;SDS011;11248;52.512;13.520;2022-08-01T04:49:24;4.75;;;3.58;;
22164;SDS011;11248;52.512;13.520;2022-08-01T04:51:53;4.53;;;3.55;;
22164;SDS011;11248;52.512;13.520;2022-08-01T04:54:32;4.60;;;3.92;;
22164;SDS011;11248;52.512;13.520;2022-08-01T04:56:59;10.18;;;5.43;;
22164;SDS011;11248;52.512;13.520;2022-08-01T04:59:25;6.95;;;4.60;;
22164;SDS011;11248;52.512;13.520;2022-08-01T05:04:32;7.50;;;5.35;;
22164;SDS011;11248;52.512;13.520;2022-08-01T05:06:58;6.43;;;5.03;;
22164;SDS011;11248;52.512;13.520;2022-08-01T05:09:24;6.97;;;5.25;;
22164;SDS011;11248;52.512;13.520;2022-08-01T05:11:50;5.90;;;5.03;;
22164;SDS011;11248;52.512;13.520;2022-08-01T05:14:16;7.03;;;4.68;;
22164;SDS011;11248;52.512;13.520;2022-08-01T05:16:42;9.50;;;6.63;;
22164;SDS011;11248;52.512;13.520;2022-08-01T05:19:08;7.07;;;5.35;;
22164;SDS011;11248;52.512;13.520;2022-08-01T05:21:34;8.82;;;6.07;;
22164;SDS011;11248;52.512;13.520;2022-08-01T05:24:00;7.30;;;5.13;;
22164;SDS011;11248;52.512;13.520;2022-08-01T05:26:27;6.85;;;5.47;;
22164;SDS011;11248;52.512;13.520;2022-08-01T05:28:53;11.60;;;7.43;;
22164;SDS011;11248;52.512;13.520;2022-08-01T05:31:19;10.20;;;6.78;;
22164;SDS011;11248;52.512;13.520;2022-08-01T05:33:44;6.80;;;6.10;;
22164;SDS011;11248;52.512;13.520;2022-08-01T05:36:10;7.25;;;5.88;;
22164;SDS011;11248;52.512;13.520;2022-08-01T05:38:36;9.45;;;5.40;;
22164;SDS011;11248;52.512;13.520;2022-08-01T05:41:02;7.20;;;6.05;;
22164;SDS011;11248;52.512;13.520;2022-08-01T05:43:28;8.18;;;5.53;;
22164;SDS011;11248;52.512;13.520;2022-08-01T05:45:54;7.65;;;5.15;;
22164;SDS011;11248;52.512;13.520;2022-08-01T05:48:20;7.45;;;6.18;;
22164;SDS011;11248;52.512;13.520;2022-08-01T05:50:46;7.38;;;5.85;;
22164;SDS011;11248;52.512;13.520;2022-08-01T05:53:12;7.88;;;5.28;;
22164;SDS011;11248;52.512;13.520;2022-08-01T05:55:38;7.45;;;5.32;;
22164;SDS011;11248;52.512;13.520;2022-08-01T05:58:04;6.20;;;4.75;;
22164;SDS011;11248;52.512;13.520;2022-08-01T06:00:30;8.05;;;5.95;;
22164;SDS011;11248;52.512;13.520;2022-08-01T06:02:56;6.25;;;4.93;;
22164;SDS011;11248;52.512;13.520;2022-08-01T06:05:22;6.15;;;5.28;;
22164;SDS011;11248;52.512;13.520;2022-08-01T06:07:48;6.78;;;4.53;;
22164;SDS011;11248;52.512;13.520;2022-08-01T06:10:14;5.10;;;3.75;;
22164;SDS011;11248;52.512;13.520;2022-08-01T06:12:40;6.30;;;3.58;;
22164;SDS011;11248;52.512;13.520;2022-08-01T06:15:06;4.93;;;3.45;;
22164;SDS011;11248;52.512;13.520;2022-08-01T06:17:32;4.65;;;3.70;;
22164;SDS011;11248;52.512;13.520;2022-08-01T06:19:58;5.07;;;3.50;;
22164;SDS011;11248;52.512;13.520;2022-08-01T06:22:24;5.93;;;4.38;;
22164;SDS011;11248;52.512;13.520;2022-08-01T06:24:50;5.28;;;3.63;;
22164;SDS011;11248;52.512;13.520;2022-08-01T06:27:16;4.40;;;3.75;;
22164;SDS011;11248;52.512;13.520;2022-08-01T06:29:42;5.25;;;4.10;;
22164;SDS011;11248;52.512;13.520;2022-08-01T06:32:08;6.45;;;3.60;;
22164;SDS011;11248;52.512;13.520;2022-08-01T06:34:34;4.20;;;3.35;;
22164;SDS011;11248;52.512;13.520;2022-08-01T06:37:00;3.85;;;3.45;;
22164;SDS011;11248;52.512;13.520;2022-08-01T06:39:26;3.75;;;3.00;;
22164;SDS011;11248;52.512;13.520;2022-08-01T06:41:52;3.75;;;3.00;;
22164;SDS011;11248;52.512;13.520;2022-08-01T06:44:18;3.63;;;3.28;;
22164;SDS011;11248;52.512;13.520;2022-08-01T06:46:44;3.45;;;2.85;;
22164;SDS011;11248;52.512;13.520;2022-08-01T06:49:10;4.72;;;3.05;;
22164;SDS011;11248;52.512;13.520;2022-08-01T06:51:36;2.60;;;2.40;;
22164;SDS011;11248;52.512;13.520;2022-08-01T06:54:02;3.60;;;2.95;;
22164;SDS011;11248;52.512;13.520;2022-08-01T06:56:28;3.10;;;2.50;;
22164;SDS011;11248;52.512;13.520;2022-08-01T06:58:54;3.70;;;3.00;;
22164;SDS011;11248;52.512;13.520;2022-08-01T07:01:25;4.03;;;2.80;;
22164;SDS011;11248;52.512;13.520;2022-08-01T07:03:51;4.50;;;2.50;;
22164;SDS011;11248;52.512;13.520;2022-08-01T07:06:17;2.75;;;2.50;;
22164;SDS011;11248;52.512;13.520;2022-08-01T07:08:43;2.58;;;2.38;;
22164;SDS011;11248;52.512;13.520;2022-08-01T07:11:09;3.78;;;2.22;;
22164;SDS011;11248;52.512;13.520;2022-08-01T07:13:35;2.35;;;2.15;;
22164;SDS011;11248;52.512;13.520;2022-08-01T07:16:01;2.70;;;2.03;;
22164;SDS011;11248;52.512;13.520;2022-08-01T07:18:27;2.95;;;2.03;;
22164;SDS011;11248;52.512;13.520;2022-08-01T07:20:52;2.30;;;2.10;;
22164;SDS011;11248;52.512;13.520;2022-08-01T07:23:18;1.90;;;1.80;;
22164;SDS011;11248;52.512;13.520;2022-08-01T07:25:45;3.33;;;1.80;;
22164;SDS011;11248;52.512;13.520;2022-08-01T07:28:11;2.60;;;2.40;;
22164;SDS011;11248;52.512;13.520;2022-08-01T07:30:37;2.67;;;2.35;;
22164;SDS011;11248;52.512;13.520;2022-08-01T07:33:03;3.10;;;2.10;;
22164;SDS011;11248;52.512;13.520;2022-08-01T07:35:29;2.70;;;2.00;;
22164;SDS011;11248;52.512;13.520;2022-08-01T07:37:55;2.15;;;1.95;;
22164;SDS011;11248;52.512;13.520;2022-08-01T07:40:21;1.90;;;1.80;;
22164;SDS011;11248;52.512;13.520;2022-08-01T07:42:46;1.98;;;1.73;;
22164;SDS011;11248;52.512;13.520;2022-08-01T07:45:13;1.90;;;1.77;;
22164;SDS011;11248;52.512;13.520;2022-08-01T07:47:39;2.60;;;1.95;;
22164;SDS011;11248;52.512;13.520;2022-08-01T07:50:06;3.40;;;1.75;;
22164;SDS011;11248;52.512;13.520;2022-08-01T07:52:32;1.92;;;1.83;;
22164;SDS011;11248;52.512;13.520;2022-08-01T07:54:58;2.00;;;1.90;;
22164;SDS011;11248;52.512;13.520;2022-08-01T07:57:24;3.03;;;2.13;;
22164;SDS011;11248;52.512;13.520;2022-08-01T07:59:50;2.10;;;2.00;;
22164;SDS011;11248;52.512;13.520;2022-08-01T08:02:16;2.65;;;2.10;;
22164;SDS011;11248;52.512;13.520;2022-08-01T08:04:42;3.05;;;2.65;;
22164;SDS011;11248;52.512;13.520;2022-08-01T08:07:08;2.70;;;2.20;;
22164;SDS011;11248;52.512;13.520;2022-08-01T08:09:34;2.63;;;2.42;;
22164;SDS011;11248;52.512;13.520;2022-08-01T08:12:00;2.60;;;2.35;;
22164;SDS011;11248;52.512;13.520;2022-08-01T08:14:26;2.45;;;2.08;;
22164;SDS011;11248;52.512;13.520;2022-08-01T08:16:52;3.10;;;2.28;;
22164;SDS011;11248;52.512;13.520;2022-08-01T08:19:18;2.58;;;2.00;;
22164;SDS011;11248;52.512;13.520;2022-08-01T08:21:43;2.65;;;2.42;;
22164;SDS011;11248;52.512;13.520;2022-08-01T08:24:10;2.50;;;2.30;;
22164;SDS011;11248;52.512;13.520;2022-08-01T08:26:48;3.38;;;3.08;;
22164;SDS011;11248;52.512;13.520;2022-08-01T08:29:15;2.97;;;2.70;;
22164;SDS011;11248;52.512;13.520;2022-08-01T08:31:41;4.57;;;2.75;;
22164;SDS011;11248;52.512;13.520;2022-08-01T08:34:07;2.97;;;2.67;;
22164;SDS011;11248;52.512;13.520;2022-08-01T08:36:33;2.67;;;2.47;;
22164;SDS011;11248;52.512;13.520;2022-08-01T08:38:59;3.92;;;2.75;;
22164;SDS011;11248;52.512;13.520;2022-08-01T08:41:25;2.95;;;2.45;;
22164;SDS011;11248;52.512;13.520;2022-08-01T08:43:51;4.30;;;3.05;;
22164;SDS011;11248;52.512;13.520;2022-08-01T08:46:18;2.40;;;2.20;;
22164;SDS011;11248;52.512;13.520;2022-08-01T08:48:44;2.42;;;2.22;;
22164;SDS011;11248;52.512;13.520;2022-08-01T08:51:10;3.33;;;2.45;;
22164;SDS011;11248;52.512;13.520;2022-08-01T08:53:38;2.42;;;2.20;;
22164;SDS011;11248;52.512;13.520;2022-08-01T08:56:08;5.60;;;2.53;;
22164;SDS011;11248;52.512;13.520;2022-08-01T08:58:34;2.38;;;2.10;;
22164;SDS011;11248;52.512;13.520;2022-08-01T09:01:04;2.22;;;2.03;;
22164;SDS011;11248;52.512;13.520;2022-08-01T09:03:30;2.25;;;2.05;;
22164;SDS011;11248;52.512;13.520;2022-08-01T09:05:56;2.63;;;2.17;;
22164;SDS011;11248;52.512;13.520;2022-08-01T09:08:22;1.73;;;1.63;;
22164;SDS011;11248;52.512;13.520;2022-08-01T09:10:48;2.83;;;2.08;;
22164;SDS011;11248;52.512;13.520;2022-08-01T09:13:14;2.30;;;1.52;;
22164;SDS011;11248;52.512;13.520;2022-08-01T09:15:42;1.25;;;1.17;;
22164;SDS011;11248;52.512;13.520;2022-08-01T09:18:08;1.05;;;1.00;;
22164;SDS011;11248;52.512;13.520;2022-08-01T09:20:34;1.75;;;0.88;;
22164;SDS011;11248;52.512;13.520;2022-08-01T09:23:00;1.92;;;0.73;;
22164;SDS011;11248;52.512;13.520;2022-08-01T09:25:27;1.27;;;0.90;;
22164;SDS011;11248;52.512;13.520;2022-08-01T09:28:04;1.20;;;1.05;;
22164;SDS011;11248;52.512;13.520;2022-08-01T09:30:36;1.13;;;0.98;;
22164;SDS011;11248;52.512;13.520;2022-08-01T09:33:03;2.00;;;1.10;;
22164;SDS011;11248;52.512;13.520;2022-08-01T09:35:30;0.90;;;0.88;;
22164;SDS011;11248;52.512;13.520;2022-08-01T09:38:14;2.15;;;1.02;;
22164;SDS011;11248;52.512;13.520;2022-08-01T09:40:44;1.40;;;1.20;;
22164;SDS011;11248;52.512;13.520;2022-08-01T09:43:10;1.67;;;0.98;;
22164;SDS011;11248;52.512;13.520;2022-08-01T09:45:37;1.95;;;1.30;;
22164;SDS011;11248;52.512;13.520;2022-08-01T09:48:08;1.20;;;1.10;;
22164;SDS011;11248;52.512;13.520;2022-08-01T09:50:38;1.20;;;1.00;;
22164;SDS011;11248;52.512;13.520;2022-08-01T09:53:05;1.83;;;1.00;;
22164;SDS011;11248;52.512;13.520;2022-08-01T09:55:31;1.88;;;1.00;;
22164;SDS011;11248;52.512;13.520;2022-08-01T09:57:57;0.90;;;0.90;;
22164;SDS011;11248;52.512;13.520;2022-08-01T10:00:25;1.52;;;1.30;;
22164;SDS011;11248;52.512;13.520;2022-08-01T10:02:51;1.58;;;1.30;;
22164;SDS011;11248;52.512;13.520;2022-08-01T10:05:17;2.05;;;1.25;;
22164;SDS011;11248;52.512;13.520;2022-08-01T10:07:55;2.10;;;1.50;;
22164;SDS011;11248;52.512;13.520;2022-08-01T10:10:21;2.22;;;1.55;;
22164;SDS011;11248;52.512;13.520;2022-08-01T10:12:47;1.45;;;1.35;;
22164;SDS011;11248;52.512;13.520;2022-08-01T10:15:14;6.13;;;1.65;;
22164;SDS011;11248;52.512;13.520;2022-08-01T10:17:41;2.90;;;1.50;;
22164;SDS011;11248;52.512;13.520;2022-08-01T10:20:11;2.88;;;1.60;;
22164;SDS011;11248;52.512;13.520;2022-08-01T10:22:38;3.42;;;1.55;;
22164;SDS011;11248;52.512;13.520;2022-08-01T10:25:05;2.15;;;1.30;;
22164;SDS011;11248;52.512;13.520;2022-08-01T10:27:32;1.73;;;1.38;;
22164;SDS011;11248;52.512;13.520;2022-08-01T10:29:59;1.65;;;1.30;;
22164;SDS011;11248;52.512;13.520;2022-08-01T10:32:29;1.58;;;1.45;;
22164;SDS011;11248;52.512;13.520;2022-08-01T10:34:55;1.52;;;1.33;;
22164;SDS011;11248;52.512;13.520;2022-08-01T10:37:22;3.25;;;1.70;;
22164;SDS011;11248;52.512;13.520;2022-08-01T10:39:48;1.30;;;1.20;;
22164;SDS011;11248;52.512;13.520;2022-08-01T10:42:14;2.00;;;1.30;;
22164;SDS011;11248;52.512;13.520;2022-08-01T10:44:40;1.40;;;1.30;;
22164;SDS011;11248;52.512;13.520;2022-08-01T10:47:10;1.60;;;1.50;;
22164;SDS011;11248;52.512;13.520;2022-08-01T10:49:53;2.83;;;1.70;;
22164;SDS011;11248;52.512;13.520;2022-08-01T10:52:22;1.75;;;1.60;;
22164;SDS011;11248;52.512;13.520;2022-08-01T10:54:48;1.50;;;1.40;;
22164;SDS011;11248;52.512;13.520;2022-08-01T10:57:14;1.52;;;1.30;;
22164;SDS011;11248;52.512;13.520;2022-08-01T10:59:49;1.55;;;1.45;;
22164;SDS011;11248;52.512;13.520;2022-08-01T11:02:25;1.40;;;1.30;;
22164;SDS011;11248;52.512;13.520;2022-08-01T11:04:55;2.90;;;1.33;;
22164;SDS011;11248;52.512;13.520;2022-08-01T11:07:24;1.77;;;1.20;;
22164;SDS011;11248;52.512;13.520;2022-08-01T11:10:04;1.33;;;1.23;;
22164;SDS011;11248;52.512;13.520;2022-08-01T11:12:38;1.55;;;1.27;;
22164;SDS011;11248;52.512;13.520;2022-08-01T11:17:39;1.67;;;1.30;;
22164;SDS011;11248;52.512;13.520;2022-08-01T11:25:23;3.28;;;1.02;;
22164;SDS011;11248;52.512;13.520;2022-08-01T11:27:49;1.58;;;1.20;;
22164;SDS011;11248;52.512;13.520;2022-08-01T11:30:35;1.45;;;1.20;;
22164;SDS011;11248;52.512;13.520;2022-08-01T11:33:00;1.35;;;1.25;;
22164;SDS011;11248;52.512;13.520;2022-08-01T11:35:26;2.75;;;1.40;;
22164;SDS011;11248;52.512;13.520;2022-08-01T11:37:53;3.95;;;1.25;;
22164;SDS011;11248;52.512;13.520;2022-08-01T11:40:24;3.15;;;1.10;;
22164;SDS011;11248;52.512;13.520;2022-08-01T11:45:50;1.67;;;1.02;;
22164;SDS011;11248;52.512;13.520;2022-08-01T11:48:20;1.80;;;1.30;;
22164;SDS011;11248;52.512;13.520;2022-08-01T11:50:46;1.00;;;1.00;;
22164;SDS011;11248;52.512;13.520;2022-08-01T11:53:12;1.10;;;1.10;;
22164;SDS011;11248;52.512;13.520;2022-08-01T11:55:45;2.60;;;1.17;;
22164;SDS011;11248;52.512;13.520;2022-08-01T11:58:11;1.20;;;1.10;;
22164;SDS011;11248;52.512;13.520;2022-08-01T12:00:37;1.42;;;1.15;;
22164;SDS011;11248;52.512;13.520;2022-08-01T12:03:04;2.20;;;1.35;;
22164;SDS011;11248;52.512;13.520;2022-08-01T12:05:31;1.52;;;1.00;;
22164;SDS011;11248;52.512;13.520;2022-08-01T12:07:58;1.67;;;1.17;;
22164;SDS011;11248;52.512;13.520;2022-08-01T12:10:28;2.15;;;1.38;;
22164;SDS011;11248;52.512;13.520;2022-08-01T12:13:01;1.15;;;1.05;;
22164;SDS011;11248;52.512;13.520;2022-08-01T12:15:34;1.70;;;0.80;;
22164;SDS011;11248;52.512;13.520;2022-08-01T12:18:01;2.10;;;0.70;;
22164;SDS011;11248;52.512;13.520;2022-08-01T12:20:30;0.80;;;0.80;;
22164;SDS011;11248;52.512;13.520;2022-08-01T12:22:56;1.35;;;0.90;;
22164;SDS011;11248;52.512;13.520;2022-08-01T12:25:23;0.85;;;0.85;;
22164;SDS011;11248;52.512;13.520;2022-08-01T12:27:49;3.33;;;0.90;;
22164;SDS011;11248;52.512;13.520;2022-08-01T12:30:20;0.85;;;0.70;;
22164;SDS011;11248;52.512;13.520;2022-08-01T12:32:50;2.03;;;0.90;;
22164;SDS011;11248;52.512;13.520;2022-08-01T12:35:17;1.63;;;0.90;;
22164;SDS011;11248;52.512;13.520;2022-08-01T12:37:44;3.50;;;0.90;;
22164;SDS011;11248;52.512;13.520;2022-08-01T12:40:11;1.10;;;1.00;;
22164;SDS011;11248;52.512;13.520;2022-08-01T12:42:38;1.20;;;1.00;;
22164;SDS011;11248;52.512;13.520;2022-08-01T12:45:04;1.00;;;0.80;;
22164;SDS011;11248;52.512;13.520;2022-08-01T12:47:32;0.70;;;0.70;;
22164;SDS011;11248;52.512;13.520;2022-08-01T12:49:58;2.28;;;0.88;;
22164;SDS011;11248;52.512;13.520;2022-08-01T12:52:24;0.93;;;0.88;;
22164;SDS011;11248;52.512;13.520;2022-08-01T12:57:36;1.45;;;1.00;;
22164;SDS011;11248;52.512;13.520;2022-08-01T13:00:10;1.40;;;1.00;;
22164;SDS011;11248;52.512;13.520;2022-08-01T13:02:37;2.03;;;1.20;;
22164;SDS011;11248;52.512;13.520;2022-08-01T13:05:04;1.48;;;1.23;;
22164;SDS011;11248;52.512;13.520;2022-08-01T13:07:37;1.23;;;1.13;;
22164;SDS011;11248;52.512;13.520;2022-08-01T13:10:03;1.20;;;1.10;;
22164;SDS011;11248;52.512;13.520;2022-08-01T13:12:29;1.10;;;1.00;;
22164;SDS011;11248;52.512;13.520;2022-08-01T13:14:55;1.20;;;0.90;;
22164;SDS011;11248;52.512;13.520;2022-08-01T13:17:31;0.88;;;0.88;;
22164;SDS011;11248;52.512;13.520;2022-08-01T13:19:57;1.25;;;0.85;;
22164;SDS011;11248;52.512;13.520;2022-08-01T13:22:33;1.38;;;1.20;;
22164;SDS011;11248;52.512;13.520;2022-08-01T13:25:12;3.58;;;1.08;;
22164;SDS011;11248;52.512;13.520;2022-08-01T13:27:38;1.30;;;1.20;;
22164;SDS011;11248;52.512;13.520;2022-08-01T13:30:14;1.55;;;1.00;;
22164;SDS011;11248;52.512;13.520;2022-08-01T13:32:41;0.90;;;0.90;;
22164;SDS011;11248;52.512;13.520;2022-08-01T13:35:10;1.02;;;1.02;;
22164;SDS011;11248;52.512;13.520;2022-08-01T13:37:40;1.42;;;1.33;;
22164;SDS011;11248;52.512;13.520;2022-08-01T13:40:07;1.20;;;1.10;;
22164;SDS011;11248;52.512;13.520;2022-08-01T13:42:33;1.05;;;0.95;;
22164;SDS011;11248;52.512;13.520;2022-08-01T13:44:59;1.75;;;1.05;;
22164;SDS011;11248;52.512;13.520;2022-08-01T13:47:25;0.90;;;0.90;;
22164;SDS011;11248;52.512;13.520;2022-08-01T13:49:51;1.52;;;1.02;;
22164;SDS011;11248;52.512;13.520;2022-08-01T13:52:17;1.27;;;1.17;;
22164;SDS011;11248;52.512;13.520;2022-08-01T13:54:43;2.47;;;1.10;;
22164;SDS011;11248;52.512;13.520;2022-08-01T13:57:09;0.95;;;0.90;;
22164;SDS011;11248;52.512;13.520;2022-08-01T13:59:35;1.15;;;1.00;;
22164;SDS011;11248;52.512;13.520;2022-08-01T14:02:01;1.75;;;1.00;;
22164;SDS011;11248;52.512;13.520;2022-08-01T14:04:27;3.55;;;1.33;;
22164;SDS011;11248;52.512;13.520;2022-08-01T14:06:53;1.60;;;1.50;;
22164;SDS011;11248;52.512;13.520;2022-08-01T14:09:19;2.25;;;1.27;;
22164;SDS011;11248;52.512;13.520;2022-08-01T14:11:47;1.23;;;1.20;;
22164;SDS011;11248;52.512;13.520;2022-08-01T14:14:13;1.20;;;1.15;;
22164;SDS011;11248;52.512;13.520;2022-08-01T14:16:39;1.88;;;1.20;;
22164;SDS011;11248;52.512;13.520;2022-08-01T14:19:05;1.45;;;1.33;;
22164;SDS011;11248;52.512;13.520;2022-08-01T14:21:31;1.10;;;1.00;;
22164;SDS011;11248;52.512;13.520;2022-08-01T14:23:57;1.95;;;1.17;;
22164;SDS011;11248;52.512;13.520;2022-08-01T14:26:23;1.30;;;1.15;;
22164;SDS011;11248;52.512;13.520;2022-08-01T14:28:49;1.30;;;1.20;;
22164;SDS011;11248;52.512;13.520;2022-08-01T14:31:15;1.55;;;1.30;;
22164;SDS011;11248;52.512;13.520;2022-08-01T14:33:41;1.73;;;1.20;;
22164;SDS011;11248;52.512;13.520;2022-08-01T14:36:07;1.77;;;1.20;;
22164;SDS011;11248;52.512;13.520;2022-08-01T14:38:33;1.50;;;1.20;;
22164;SDS011;11248;52.512;13.520;2022-08-01T14:40:59;1.20;;;1.10;;
22164;SDS011;11248;52.512;13.520;2022-08-01T14:43:25;1.30;;;1.17;;
22164;SDS011;11248;52.512;13.520;2022-08-01T14:45:54;1.63;;;1.13;;
22164;SDS011;11248;52.512;13.520;2022-08-01T14:48:20;1.00;;;1.00;;
22164;SDS011;11248;52.512;13.520;2022-08-01T14:50:46;1.08;;;1.00;;
22164;SDS011;11248;52.512;13.520;2022-08-01T14:53:12;2.05;;;0.82;;